sensor_id;sensor_type;location;lat;lon;timestamp;temperature;humidity
49679;DHT22;35570;48.218;16.326;2023-11-21T00:01:18;10.40;98.30
49679;DHT22;35570;48.218;16.326;2023-11-21T00:03:43;10.40;98.50
49679;DHT22;35570;48.218;16.326;2023-11-21T00:06:09;10.30;98.70
49679;DHT22;35570;48.218;16.326;2023-11-21T00:08:36;10.30;98.50
49679;DHT22;35570;48.218;16.326;2023-11-21T00:11:02;10.30;98.50
49679;DHT22;35570;48.218;16.326;2023-11-21T00:13:31;10.30;98.50
49679;DHT22;35570;48.218;16.326;2023-11-21T00:15:57;10.20;98.40
49679;DHT22;35570;48.218;16.326;2023-11-21T00:18:22;10.20;99.10
49679;DHT22;35570;48.218;16.326;2023-11-21T00:20:48;10.90;99.40
49679;DHT22;35570;48.218;16.326;2023-11-21T00:23:14;10.10;99.20
49679;DHT22;35570;48.218;16.326;2023-11-21T00:25:40;10.10;99.30
49679;DHT22;35570;48.218;16.326;2023-11-21T00:28:05;10.00;99.40
49679;DHT22;35570;48.218;16.326;2023-11-21T00:30:31;10.00;99.50
49679;DHT22;35570;48.218;16.326;2023-11-21T00:32:57;11.30;99.50
49679;DHT22;35570;48.218;16.326;2023-11-21T00:35:25;9.90;99.90
49679;DHT22;35570;48.218;16.326;2023-11-21T00:37:50;10.00;99.60
49679;DHT22;35570;48.218;16.326;2023-11-21T00:40:16;10.00;99.90
49679;DHT22;35570;48.218;16.326;2023-11-21T00:42:45;10.70;99.70
49679;DHT22;35570;48.218;16.326;2023-11-21T00:45:11;10.00;99.40
49679;DHT22;35570;48.218;16.326;2023-11-21T00:47:37;9.90;99.60
49679;DHT22;35570;48.218;16.326;2023-11-21T00:50:04;9.90;99.30
49679;DHT22;35570;48.218;16.326;2023-11-21T00:52:32;9.90;99.50
49679;DHT22;35570;48.218;16.326;2023-11-21T00:54:58;10.20;99.90
49679;DHT22;35570;48.218;16.326;2023-11-21T00:57:26;10.10;99.70
49679;DHT22;35570;48.218;16.326;2023-11-21T00:59:52;9.80;99.60
49679;DHT22;35570;48.218;16.326;2023-11-21T01:02:17;9.80;99.90
49679;DHT22;35570;48.218;16.326;2023-11-21T01:04:43;9.70;99.90
49679;DHT22;35570;48.218;16.326;2023-11-21T01:07:09;10.00;99.60
49679;DHT22;35570;48.218;16.326;2023-11-21T01:09:35;9.00;99.90
49679;DHT22;35570;48.218;16.326;2023-11-21T01:12:01;9.60;99.90
49679;DHT22;35570;48.218;16.326;2023-11-21T01:14:27;9.60;99.90
49679;DHT22;35570;48.218;16.326;2023-11-21T01:16:53;9.60;99.90
49679;DHT22;35570;48.218;16.326;2023-11-21T01:19:19;9.50;99.90
49679;DHT22;35570;48.218;16.326;2023-11-21T01:21:48;9.40;99.90
49679;DHT22;35570;48.218;16.326;2023-11-21T01:24:14;10.30;99.90
49679;DHT22;35570;48.218;16.326;2023-11-21T01:26:39;9.40;99.90
49679;DHT22;35570;48.218;16.326;2023-11-21T01:29:06;9.40;99.90
49679;DHT22;35570;48.218;16.326;2023-11-21T01:31:32;9.40;99.90
49679;DHT22;35570;48.218;16.326;2023-11-21T01:33:57;9.40;99.90
49679;DHT22;35570;48.218;16.326;2023-11-21T01:36:33;9.30;99.90
49679;DHT22;35570;48.218;16.326;2023-11-21T01:39:00;9.30;99.90
49679;DHT22;35570;48.218;16.326;2023-11-21T01:41:28;9.30;99.90
49679;DHT22;35570;48.218;16.326;2023-11-21T01:43:55;9.30;99.90
49679;DHT22;35570;48.218;16.326;2023-11-21T01:46:22;9.10;99.90
49679;DHT22;35570;48.218;16.326;2023-11-21T01:48:49;8.60;99.90
49679;DHT22;35570;48.218;16.326;2023-11-21T01:51:16;9.20;99.90
49679;DHT22;35570;48.218;16.326;2023-11-21T01:53:42;9.20;99.90
49679;DHT22;35570;48.218;16.326;2023-11-21T01:56:09;9.40;99.90
49679;DHT22;35570;48.218;16.326;2023-11-21T01:58:35;9.20;99.90
49679;DHT22;35570;48.218;16.326;2023-11-21T02:01:01;9.30;99.90
49679;DHT22;35570;48.218;16.326;2023-11-21T02:03:27;9.30;99.90
49679;DHT22;35570;48.218;16.326;2023-11-21T02:05:53;9.30;99.90
49679;DHT22;35570;48.218;16.326;2023-11-21T02:08:20;9.20;99.90
49679;DHT22;35570;48.218;16.326;2023-11-21T02:10:45;9.20;99.90
49679;DHT22;35570;48.218;16.326;2023-11-21T02:13:13;9.20;99.90
49679;DHT22;35570;48.218;16.326;2023-11-21T02:15:39;8.60;99.90
49679;DHT22;35570;48.218;16.326;2023-11-21T02:18:05;9.10;99.90
49679;DHT22;35570;48.218;16.326;2023-11-21T02:20:32;9.10;99.90
49679;DHT22;35570;48.218;16.326;2023-11-21T02:23:00;9.20;99.90
49679;DHT22;35570;48.218;16.326;2023-11-21T02:25:31;9.20;99.90
49679;DHT22;35570;48.218;16.326;2023-11-21T02:27:59;9.10;99.90
49679;DHT22;35570;48.218;16.326;2023-11-21T02:30:26;9.30;99.90
49679;DHT22;35570;48.218;16.326;2023-11-21T02:32:58;9.10;99.90
49679;DHT22;35570;48.218;16.326;2023-11-21T02:35:25;9.10;99.90
49679;DHT22;35570;48.218;16.326;2023-11-21T02:37:56;9.20;99.90
49679;DHT22;35570;48.218;16.326;2023-11-21T02:40:22;9.20;99.90
49679;DHT22;35570;48.218;16.326;2023-11-21T02:42:50;9.10;99.90
49679;DHT22;35570;48.218;16.326;2023-11-21T02:45:20;9.20;99.90
49679;DHT22;35570;48.218;16.326;2023-11-21T02:47:49;9.00;99.90
49679;DHT22;35570;48.218;16.326;2023-11-21T02:50:18;8.10;99.90
49679;DHT22;35570;48.218;16.326;2023-11-21T02:52:44;9.20;99.90
49679;DHT22;35570;48.218;16.326;2023-11-21T02:55:10;9.40;99.90
49679;DHT22;35570;48.218;16.326;2023-11-21T02:57:36;9.10;99.90
49679;DHT22;35570;48.218;16.326;2023-11-21T03:00:02;9.10;99.90
49679;DHT22;35570;48.218;16.326;2023-11-21T03:02:28;9.10;99.90
49679;DHT22;35570;48.218;16.326;2023-11-21T03:04:54;7.90;99.90
49679;DHT22;35570;48.218;16.326;2023-11-21T03:07:20;9.10;99.90
49679;DHT22;35570;48.218;16.326;2023-11-21T03:09:47;9.10;99.90
49679;DHT22;35570;48.218;16.326;2023-11-21T03:12:13;9.10;99.90
49679;DHT22;35570;48.218;16.326;2023-11-21T03:14:42;9.00;99.90
49679;DHT22;35570;48.218;16.326;2023-11-21T03:17:08;9.00;99.90
49679;DHT22;35570;48.218;16.326;2023-11-21T03:19:33;9.00;99.90
49679;DHT22;35570;48.218;16.326;2023-11-21T03:21:59;9.00;99.90
49679;DHT22;35570;48.218;16.326;2023-11-21T03:24:25;8.20;99.90
49679;DHT22;35570;48.218;16.326;2023-11-21T03:26:52;10.90;99.90
49679;DHT22;35570;48.218;16.326;2023-11-21T03:29:18;9.00;99.90
49679;DHT22;35570;48.218;16.326;2023-11-21T03:31:44;9.00;99.90
49679;DHT22;35570;48.218;16.326;2023-11-21T03:34:16;9.00;99.90
49679;DHT22;35570;48.218;16.326;2023-11-21T03:36:43;9.00;99.90
49679;DHT22;35570;48.218;16.326;2023-11-21T03:39:08;8.90;99.90
49679;DHT22;35570;48.218;16.326;2023-11-21T03:41:34;9.00;99.90
49679;DHT22;35570;48.218;16.326;2023-11-21T03:44:00;9.20;99.90
49679;DHT22;35570;48.218;16.326;2023-11-21T03:46:26;8.90;99.90
49679;DHT22;35570;48.218;16.326;2023-11-21T03:48:51;9.00;99.90
49679;DHT22;35570;48.218;16.326;2023-11-21T03:51:17;9.00;99.90
49679;DHT22;35570;48.218;16.326;2023-11-21T03:53:43;9.00;99.90
49679;DHT22;35570;48.218;16.326;2023-11-21T03:56:09;9.00;99.90
49679;DHT22;35570;48.218;16.326;2023-11-21T03:58:35;9.10;99.90
49679;DHT22;35570;48.218;16.326;2023-11-21T04:01:00;9.10;99.90
49679;DHT22;35570;48.218;16.326;2023-11-21T04:03:27;9.10;99.90
49679;DHT22;35570;48.218;16.326;2023-11-21T04:05:52;9.10;99.90
49679;DHT22;35570;48.218;16.326;2023-11-21T04:08:18;9.00;99.90
49679;DHT22;35570;48.218;16.326;2023-11-21T04:10:44;9.00;99.90
49679;DHT22;35570;48.218;16.326;2023-11-21T04:13:10;9.00;99.90
49679;DHT22;35570;48.218;16.326;2023-11-21T04:15:36;9.00;99.90
49679;DHT22;35570;48.218;16.326;2023-11-21T04:18:01;9.00;99.90
49679;DHT22;35570;48.218;16.326;2023-11-21T04:20:27;8.90;99.90
49679;DHT22;35570;48.218;16.326;2023-11-21T04:22:53;8.90;99.90
49679;DHT22;35570;48.218;16.326;2023-11-21T04:25:19;8.90;99.90
49679;DHT22;35570;48.218;16.326;2023-11-21T04:27:45;8.80;99.90
49679;DHT22;35570;48.218;16.326;2023-11-21T04:30:12;8.80;99.90
49679;DHT22;35570;48.218;16.326;2023-11-21T04:32:38;8.20;99.90
49679;DHT22;35570;48.218;16.326;2023-11-21T04:35:07;8.80;99.90
49679;DHT22;35570;48.218;16.326;2023-11-21T04:37:34;8.80;99.90
49679;DHT22;35570;48.218;16.326;2023-11-21T04:40:00;8.80;99.90
49679;DHT22;35570;48.218;16.326;2023-11-21T04:42:26;8.80;99.90
49679;DHT22;35570;48.218;16.326;2023-11-21T04:44:51;8.90;99.90
49679;DHT22;35570;48.218;16.326;2023-11-21T04:47:18;8.90;99.90
49679;DHT22;35570;48.218;16.326;2023-11-21T04:49:46;9.00;99.90
49679;DHT22;35570;48.218;16.326;2023-11-21T04:52:15;9.00;99.90
49679;DHT22;35570;48.218;16.326;2023-11-21T04:54:40;9.00;99.90
49679;DHT22;35570;48.218;16.326;2023-11-21T04:57:06;9.10;99.90
49679;DHT22;35570;48.218;16.326;2023-11-21T04:59:35;7.90;99.90
49679;DHT22;35570;48.218;16.326;2023-11-21T05:02:01;9.10;99.90
49679;DHT22;35570;48.218;16.326;2023-11-21T05:04:26;9.10;99.90
49679;DHT22;35570;48.218;16.326;2023-11-21T05:06:52;9.10;99.90
49679;DHT22;35570;48.218;16.326;2023-11-21T05:09:18;9.10;99.90
49679;DHT22;35570;48.218;16.326;2023-11-21T05:11:44;9.10;99.90
49679;DHT22;35570;48.218;16.326;2023-11-21T05:14:10;9.00;99.90
49679;DHT22;35570;48.218;16.326;2023-11-21T05:16:35;9.10;99.90
49679;DHT22;35570;48.218;16.326;2023-11-21T05:19:01;9.00;99.90
49679;DHT22;35570;48.218;16.326;2023-11-21T05:21:27;9.00;99.90
49679;DHT22;35570;48.218;16.326;2023-11-21T05:23:53;9.00;99.90
49679;DHT22;35570;48.218;16.326;2023-11-21T05:26:19;8.90;99.90
49679;DHT22;35570;48.218;16.326;2023-11-21T05:28:45;8.90;99.90
49679;DHT22;35570;48.218;16.326;2023-11-21T05:31:10;8.90;99.90
49679;DHT22;35570;48.218;16.326;2023-11-21T05:33:36;8.90;99.90
49679;DHT22;35570;48.218;16.326;2023-11-21T05:36:02;8.90;99.90
49679;DHT22;35570;48.218;16.326;2023-11-21T05:38:28;8.80;99.90
49679;DHT22;35570;48.218;16.326;2023-11-21T05:40:54;8.90;99.90
49679;DHT22;35570;48.218;16.326;2023-11-21T05:43:20;8.90;99.90
49679;DHT22;35570;48.218;16.326;2023-11-21T05:45:46;8.90;99.90
49679;DHT22;35570;48.218;16.326;2023-11-21T05:48:12;8.90;99.90
49679;DHT22;35570;48.218;16.326;2023-11-21T05:50:37;8.80;99.90
49679;DHT22;35570;48.218;16.326;2023-11-21T05:53:03;8.80;99.90
49679;DHT22;35570;48.218;16.326;2023-11-21T05:55:29;8.80;99.90
49679;DHT22;35570;48.218;16.326;2023-11-21T05:57:55;8.80;99.90
49679;DHT22;35570;48.218;16.326;2023-11-21T06:00:21;8.80;99.90
49679;DHT22;35570;48.218;16.326;2023-11-21T06:02:52;8.30;99.90
49679;DHT22;35570;48.218;16.326;2023-11-21T06:05:23;8.80;99.90
49679;DHT22;35570;48.218;16.326;2023-11-21T06:07:50;8.90;99.90
49679;DHT22;35570;48.218;16.326;2023-11-21T06:10:16;9.00;99.90
49679;DHT22;35570;48.218;16.326;2023-11-21T06:12:43;10.00;99.90
49679;DHT22;35570;48.218;16.326;2023-11-21T06:15:10;8.90;99.90
49679;DHT22;35570;48.218;16.326;2023-11-21T06:17:39;8.90;99.90
49679;DHT22;35570;48.218;16.326;2023-11-21T06:20:06;8.90;99.90
49679;DHT22;35570;48.218;16.326;2023-11-21T06:22:38;8.90;99.90
49679;DHT22;35570;48.218;16.326;2023-11-21T06:25:04;8.00;99.90
49679;DHT22;35570;48.218;16.326;2023-11-21T06:27:34;7.90;99.90
49679;DHT22;35570;48.218;16.326;2023-11-21T06:30:02;9.00;99.90
49679;DHT22;35570;48.218;16.326;2023-11-21T06:32:28;9.10;99.90
49679;DHT22;35570;48.218;16.326;2023-11-21T06:34:55;9.10;99.90
49679;DHT22;35570;48.218;16.326;2023-11-21T06:37:21;9.20;99.90
49679;DHT22;35570;48.218;16.326;2023-11-21T06:39:55;9.20;99.90
49679;DHT22;35570;48.218;16.326;2023-11-21T06:42:22;9.30;99.90
49679;DHT22;35570;48.218;16.326;2023-11-21T06:44:49;9.30;99.90
49679;DHT22;35570;48.218;16.326;2023-11-21T06:47:17;9.30;99.90
49679;DHT22;35570;48.218;16.326;2023-11-21T06:49:43;9.40;99.90
49679;DHT22;35570;48.218;16.326;2023-11-21T06:52:09;9.40;99.90
49679;DHT22;35570;48.218;16.326;2023-11-21T06:54:37;9.40;99.90
49679;DHT22;35570;48.218;16.326;2023-11-21T06:57:03;9.40;99.90
49679;DHT22;35570;48.218;16.326;2023-11-21T06:59:29;9.50;99.90
49679;DHT22;35570;48.218;16.326;2023-11-21T07:01:54;9.50;99.90
49679;DHT22;35570;48.218;16.326;2023-11-21T07:04:20;9.60;99.90
49679;DHT22;35570;48.218;16.326;2023-11-21T07:06:46;9.60;99.90
49679;DHT22;35570;48.218;16.326;2023-11-21T07:09:12;9.60;99.90
49679;DHT22;35570;48.218;16.326;2023-11-21T07:11:38;9.60;99.90
49679;DHT22;35570;48.218;16.326;2023-11-21T07:14:04;9.60;99.90
49679;DHT22;35570;48.218;16.326;2023-11-21T07:16:36;9.60;99.90
49679;DHT22;35570;48.218;16.326;2023-11-21T07:19:06;9.50;99.90
49679;DHT22;35570;48.218;16.326;2023-11-21T07:21:36;9.60;99.90
49679;DHT22;35570;48.218;16.326;2023-11-21T07:24:06;9.60;99.90
49679;DHT22;35570;48.218;16.326;2023-11-21T07:26:32;9.70;99.90
49679;DHT22;35570;48.218;16.326;2023-11-21T07:28:59;9.70;99.90
49679;DHT22;35570;48.218;16.326;2023-11-21T07:31:25;9.80;99.90
49679;DHT22;35570;48.218;16.326;2023-11-21T07:33:51;9.80;99.90
49679;DHT22;35570;48.218;16.326;2023-11-21T07:36:18;9.90;99.90
49679;DHT22;35570;48.218;16.326;2023-11-21T07:38:47;10.00;99.50
49679;DHT22;35570;48.218;16.326;2023-11-21T07:41:13;10.00;99.70
49679;DHT22;35570;48.218;16.326;2023-11-21T07:43:43;11.00;99.50
49679;DHT22;35570;48.218;16.326;2023-11-21T07:46:10;10.10;99.20
49679;DHT22;35570;48.218;16.326;2023-11-21T07:48:38;10.40;99.00
49679;DHT22;35570;48.218;16.326;2023-11-21T07:51:12;10.30;99.00
49679;DHT22;35570;48.218;16.326;2023-11-21T07:53:38;10.40;98.60
49679;DHT22;35570;48.218;16.326;2023-11-21T07:56:06;10.40;98.80
49679;DHT22;35570;48.218;16.326;2023-11-21T07:58:33;10.40;98.80
49679;DHT22;35570;48.218;16.326;2023-11-21T08:00:59;10.40;99.90
49679;DHT22;35570;48.218;16.326;2023-11-21T08:03:25;10.40;99.30
49679;DHT22;35570;48.218;16.326;2023-11-21T08:08:27;10.40;98.80
49679;DHT22;35570;48.218;16.326;2023-11-21T08:10:53;10.50;98.40
49679;DHT22;35570;48.218;16.326;2023-11-21T08:15:58;10.50;98.30
49679;DHT22;35570;48.218;16.326;2023-11-21T08:21:03;10.60;98.20
49679;DHT22;35570;48.218;16.326;2023-11-21T08:23:30;10.40;98.10
49679;DHT22;35570;48.218;16.326;2023-11-21T08:31:06;10.50;98.70
49679;DHT22;35570;48.218;16.326;2023-11-21T08:33:32;10.50;98.10
49679;DHT22;35570;48.218;16.326;2023-11-21T08:35:58;10.50;98.30
49679;DHT22;35570;48.218;16.326;2023-11-21T08:46:25;10.40;98.30
49679;DHT22;35570;48.218;16.326;2023-11-21T08:48:51;10.60;98.40
49679;DHT22;35570;48.218;16.326;2023-11-21T08:51:18;10.60;97.90
49679;DHT22;35570;48.218;16.326;2023-11-21T09:06:57;11.10;96.60
49679;DHT22;35570;48.218;16.326;2023-11-21T09:12:00;11.50;96.50
49679;DHT22;35570;48.218;16.326;2023-11-21T09:14:27;11.80;96.20
49679;DHT22;35570;48.218;16.326;2023-11-21T09:24:39;13.70;94.60
49679;DHT22;35570;48.218;16.326;2023-11-21T09:34:50;14.30;89.30
49679;DHT22;35570;48.218;16.326;2023-11-21T09:37:17;14.40;90.10
49679;DHT22;35570;48.218;16.326;2023-11-21T09:50:05;16.40;80.70
49679;DHT22;35570;48.218;16.326;2023-11-21T09:52:49;17.80;75.00
49679;DHT22;35570;48.218;16.326;2023-11-21T09:55:18;17.70;75.50
49679;DHT22;35570;48.218;16.326;2023-11-21T09:57:47;18.20;72.40
49679;DHT22;35570;48.218;16.326;2023-11-21T10:00:14;18.20;72.50
49679;DHT22;35570;48.218;16.326;2023-11-21T10:02:43;18.00;71.20
49679;DHT22;35570;48.218;16.326;2023-11-21T10:07:44;17.40;72.30
49679;DHT22;35570;48.218;16.326;2023-11-21T10:10:12;17.20;72.70
49679;DHT22;35570;48.218;16.326;2023-11-21T10:15:15;17.00;72.80
49679;DHT22;35570;48.218;16.326;2023-11-21T10:20:14;16.30;71.90
49679;DHT22;35570;48.218;16.326;2023-11-21T10:22:49;16.10;72.60
49679;DHT22;35570;48.218;16.326;2023-11-21T10:33:01;18.40;67.80
49679;DHT22;35570;48.218;16.326;2023-11-21T10:35:39;18.60;65.30
49679;DHT22;35570;48.218;16.326;2023-11-21T10:48:26;16.10;70.50
49679;DHT22;35570;48.218;16.326;2023-11-21T10:58:39;15.30;72.50
49679;DHT22;35570;48.218;16.326;2023-11-21T11:01:06;15.00;73.90
49679;DHT22;35570;48.218;16.326;2023-11-21T11:03:32;15.00;74.90
49679;DHT22;35570;48.218;16.326;2023-11-21T11:08:35;15.00;76.70
49679;DHT22;35570;48.218;16.326;2023-11-21T11:11:04;15.00;76.20
49679;DHT22;35570;48.218;16.326;2023-11-21T11:13:31;14.90;76.50
49679;DHT22;35570;48.218;16.326;2023-11-21T11:16:00;14.90;77.00
49679;DHT22;35570;48.218;16.326;2023-11-21T11:18:28;14.90;76.40
49679;DHT22;35570;48.218;16.326;2023-11-21T11:23:57;14.70;77.30
49679;DHT22;35570;48.218;16.326;2023-11-21T11:26:32;14.50;77.40
49679;DHT22;35570;48.218;16.326;2023-11-21T11:29:10;14.90;79.40
49679;DHT22;35570;48.218;16.326;2023-11-21T11:34:29;17.10;72.00
49679;DHT22;35570;48.218;16.326;2023-11-21T11:37:04;17.30;69.20
49679;DHT22;35570;48.218;16.326;2023-11-21T11:39:38;17.10;69.40
49679;DHT22;35570;48.218;16.326;2023-11-21T11:42:07;17.00;69.20
49679;DHT22;35570;48.218;16.326;2023-11-21T11:47:27;17.50;69.40
49679;DHT22;35570;48.218;16.326;2023-11-21T11:52:36;17.10;67.30
49679;DHT22;35570;48.218;16.326;2023-11-21T11:55:03;16.50;68.00
49679;DHT22;35570;48.218;16.326;2023-11-21T11:57:34;15.90;70.30
49679;DHT22;35570;48.218;16.326;2023-11-21T12:02:46;14.90;72.90
49679;DHT22;35570;48.218;16.326;2023-11-21T12:05:19;14.70;73.90
49679;DHT22;35570;48.218;16.326;2023-11-21T12:07:56;14.50;74.70
49679;DHT22;35570;48.218;16.326;2023-11-21T12:10:30;14.30;75.80
49679;DHT22;35570;48.218;16.326;2023-11-21T12:12:58;14.10;77.00
49679;DHT22;35570;48.218;16.326;2023-11-21T12:15:24;14.00;77.10
49679;DHT22;35570;48.218;16.326;2023-11-21T12:17:51;13.90;77.70
49679;DHT22;35570;48.218;16.326;2023-11-21T12:20:24;13.80;78.10
49679;DHT22;35570;48.218;16.326;2023-11-21T12:22:51;13.90;78.70
49679;DHT22;35570;48.218;16.326;2023-11-21T12:25:19;13.90;78.60
49679;DHT22;35570;48.218;16.326;2023-11-21T12:27:46;13.90;78.80
49679;DHT22;35570;48.218;16.326;2023-11-21T12:30:12;12.70;78.30
49679;DHT22;35570;48.218;16.326;2023-11-21T12:32:43;13.80;79.00
49679;DHT22;35570;48.218;16.326;2023-11-21T12:35:10;13.70;79.60
49679;DHT22;35570;48.218;16.326;2023-11-21T12:37:39;13.60;80.00
49679;DHT22;35570;48.218;16.326;2023-11-21T12:40:06;13.60;80.70
49679;DHT22;35570;48.218;16.326;2023-11-21T12:42:39;13.40;81.20
49679;DHT22;35570;48.218;16.326;2023-11-21T12:45:08;13.40;81.80
49679;DHT22;35570;48.218;16.326;2023-11-21T12:47:40;13.30;82.90
49679;DHT22;35570;48.218;16.326;2023-11-21T12:50:06;13.20;83.10
49679;DHT22;35570;48.218;16.326;2023-11-21T12:52:32;13.10;84.20
49679;DHT22;35570;48.218;16.326;2023-11-21T12:54:58;13.00;84.20
49679;DHT22;35570;48.218;16.326;2023-11-21T12:57:28;11.40;84.40
49679;DHT22;35570;48.218;16.326;2023-11-21T12:59:57;12.90;85.80
49679;DHT22;35570;48.218;16.326;2023-11-21T13:02:26;12.80;87.00
49679;DHT22;35570;48.218;16.326;2023-11-21T13:04:53;12.60;88.30
49679;DHT22;35570;48.218;16.326;2023-11-21T13:07:19;12.10;88.60
49679;DHT22;35570;48.218;16.326;2023-11-21T13:09:48;12.40;89.50
49679;DHT22;35570;48.218;16.326;2023-11-21T13:12:17;12.40;89.70
49679;DHT22;35570;48.218;16.326;2023-11-21T13:14:46;12.20;90.50
49679;DHT22;35570;48.218;16.326;2023-11-21T13:17:12;12.10;90.90
49679;DHT22;35570;48.218;16.326;2023-11-21T13:19:38;11.90;91.40
49679;DHT22;35570;48.218;16.326;2023-11-21T13:22:04;11.90;91.90
49679;DHT22;35570;48.218;16.326;2023-11-21T13:24:30;11.80;92.30
49679;DHT22;35570;48.218;16.326;2023-11-21T13:26:57;11.90;92.70
49679;DHT22;35570;48.218;16.326;2023-11-21T13:29:23;11.90;93.00
49679;DHT22;35570;48.218;16.326;2023-11-21T13:31:51;12.00;92.90
49679;DHT22;35570;48.218;16.326;2023-11-21T13:34:18;12.10;92.90
49679;DHT22;35570;48.218;16.326;2023-11-21T13:36:47;12.10;93.30
49679;DHT22;35570;48.218;16.326;2023-11-21T13:39:13;12.20;93.40
49679;DHT22;35570;48.218;16.326;2023-11-21T13:41:42;12.50;93.20
49679;DHT22;35570;48.218;16.326;2023-11-21T13:44:08;12.70;92.90
49679;DHT22;35570;48.218;16.326;2023-11-21T13:46:52;13.00;92.60
49679;DHT22;35570;48.218;16.326;2023-11-21T13:49:18;13.10;91.70
49679;DHT22;35570;48.218;16.326;2023-11-21T13:51:46;13.00;92.00
49679;DHT22;35570;48.218;16.326;2023-11-21T13:54:16;13.10;92.30
49679;DHT22;35570;48.218;16.326;2023-11-21T13:56:42;13.40;92.30
49679;DHT22;35570;48.218;16.326;2023-11-21T13:59:10;13.60;91.80
49679;DHT22;35570;48.218;16.326;2023-11-21T14:01:57;14.20;91.00
49679;DHT22;35570;48.218;16.326;2023-11-21T14:04:25;14.40;88.90
49679;DHT22;35570;48.218;16.326;2023-11-21T14:07:11;13.10;88.80
49679;DHT22;35570;48.218;16.326;2023-11-21T14:09:50;13.60;90.30
49679;DHT22;35570;48.218;16.326;2023-11-21T14:12:18;13.30;91.10
49679;DHT22;35570;48.218;16.326;2023-11-21T14:14:44;13.00;91.80
49679;DHT22;35570;48.218;16.326;2023-11-21T14:17:11;12.90;92.40
49679;DHT22;35570;48.218;16.326;2023-11-21T14:19:37;12.30;92.80
49679;DHT22;35570;48.218;16.326;2023-11-21T14:22:06;12.50;93.50
49679;DHT22;35570;48.218;16.326;2023-11-21T14:24:34;12.40;94.00
49679;DHT22;35570;48.218;16.326;2023-11-21T14:27:00;12.30;94.50
49679;DHT22;35570;48.218;16.326;2023-11-21T14:29:26;12.20;94.90
49679;DHT22;35570;48.218;16.326;2023-11-21T14:31:53;12.40;95.50
49679;DHT22;35570;48.218;16.326;2023-11-21T14:34:22;12.00;95.60
49679;DHT22;35570;48.218;16.326;2023-11-21T14:36:52;11.90;95.70
49679;DHT22;35570;48.218;16.326;2023-11-21T14:39:18;11.70;96.00
49679;DHT22;35570;48.218;16.326;2023-11-21T14:41:53;11.60;95.70
49679;DHT22;35570;48.218;16.326;2023-11-21T14:44:21;11.60;95.80
49679;DHT22;35570;48.218;16.326;2023-11-21T14:46:52;11.50;96.30
49679;DHT22;35570;48.218;16.326;2023-11-21T14:49:19;11.20;96.70
49679;DHT22;35570;48.218;16.326;2023-11-21T14:51:52;11.40;97.40
49679;DHT22;35570;48.218;16.326;2023-11-21T14:54:29;11.30;97.90
49679;DHT22;35570;48.218;16.326;2023-11-21T14:57:21;11.20;98.30
49679;DHT22;35570;48.218;16.326;2023-11-21T14:59:49;11.20;98.90
49679;DHT22;35570;48.218;16.326;2023-11-21T15:02:18;11.20;99.30
49679;DHT22;35570;48.218;16.326;2023-11-21T15:04:48;11.50;99.90
49679;DHT22;35570;48.218;16.326;2023-11-21T15:07:18;11.20;99.90
49679;DHT22;35570;48.218;16.326;2023-11-21T15:09:43;11.10;99.90
49679;DHT22;35570;48.218;16.326;2023-11-21T15:12:11;11.10;99.90
49679;DHT22;35570;48.218;16.326;2023-11-21T15:14:46;11.00;99.90
49679;DHT22;35570;48.218;16.326;2023-11-21T15:17:15;10.90;99.90
49679;DHT22;35570;48.218;16.326;2023-11-21T15:19:48;10.90;99.90
49679;DHT22;35570;48.218;16.326;2023-11-21T15:22:13;10.80;99.90
49679;DHT22;35570;48.218;16.326;2023-11-21T15:24:42;10.70;99.90
49679;DHT22;35570;48.218;16.326;2023-11-21T15:27:11;10.70;99.90
49679;DHT22;35570;48.218;16.326;2023-11-21T15:29:40;10.60;99.90
49679;DHT22;35570;48.218;16.326;2023-11-21T15:32:07;10.50;99.90
49679;DHT22;35570;48.218;16.326;2023-11-21T15:34:34;10.40;99.90
49679;DHT22;35570;48.218;16.326;2023-11-21T15:37:00;10.40;99.90
49679;DHT22;35570;48.218;16.326;2023-11-21T15:39:26;10.30;99.90
49679;DHT22;35570;48.218;16.326;2023-11-21T15:41:56;10.20;99.90
49679;DHT22;35570;48.218;16.326;2023-11-21T15:44:22;11.10;99.90
49679;DHT22;35570;48.218;16.326;2023-11-21T15:46:49;10.10;99.90
49679;DHT22;35570;48.218;16.326;2023-11-21T15:49:15;10.00;99.90
49679;DHT22;35570;48.218;16.326;2023-11-21T15:51:44;10.10;99.90
49679;DHT22;35570;48.218;16.326;2023-11-21T15:54:18;10.00;99.90
49679;DHT22;35570;48.218;16.326;2023-11-21T15:56:46;9.10;99.90
49679;DHT22;35570;48.218;16.326;2023-11-21T15:59:12;10.00;99.90
49679;DHT22;35570;48.218;16.326;2023-11-21T16:01:39;10.00;99.90
49679;DHT22;35570;48.218;16.326;2023-11-21T16:04:11;10.10;99.90
49679;DHT22;35570;48.218;16.326;2023-11-21T16:06:41;10.10;99.90
49679;DHT22;35570;48.218;16.326;2023-11-21T16:09:07;10.20;99.90
49679;DHT22;35570;48.218;16.326;2023-11-21T16:11:43;10.00;99.90
49679;DHT22;35570;48.218;16.326;2023-11-21T16:14:09;10.20;99.90
49679;DHT22;35570;48.218;16.326;2023-11-21T16:16:35;9.90;99.90
49679;DHT22;35570;48.218;16.326;2023-11-21T16:19:01;9.90;99.90
49679;DHT22;35570;48.218;16.326;2023-11-21T16:21:28;10.20;99.90
49679;DHT22;35570;48.218;16.326;2023-11-21T16:23:54;9.80;99.90
49679;DHT22;35570;48.218;16.326;2023-11-21T16:26:22;9.80;99.90
49679;DHT22;35570;48.218;16.326;2023-11-21T16:28:48;9.90;99.90
49679;DHT22;35570;48.218;16.326;2023-11-21T16:31:22;9.90;99.90
49679;DHT22;35570;48.218;16.326;2023-11-21T16:33:48;9.40;99.90
49679;DHT22;35570;48.218;16.326;2023-11-21T16:36:14;10.00;99.90
49679;DHT22;35570;48.218;16.326;2023-11-21T16:38:40;10.90;99.90
49679;DHT22;35570;48.218;16.326;2023-11-21T16:41:06;9.90;99.90
49679;DHT22;35570;48.218;16.326;2023-11-21T16:43:33;9.60;99.90
49679;DHT22;35570;48.218;16.326;2023-11-21T16:45:59;9.90;99.90
49679;DHT22;35570;48.218;16.326;2023-11-21T16:48:25;9.90;99.90
49679;DHT22;35570;48.218;16.326;2023-11-21T16:50:51;9.80;99.90
49679;DHT22;35570;48.218;16.326;2023-11-21T16:53:17;9.90;99.90
49679;DHT22;35570;48.218;16.326;2023-11-21T16:55:43;9.90;99.90
49679;DHT22;35570;48.218;16.326;2023-11-21T16:58:10;9.70;99.90
49679;DHT22;35570;48.218;16.326;2023-11-21T17:00:36;9.70;99.90
49679;DHT22;35570;48.218;16.326;2023-11-21T17:03:03;9.70;99.90
49679;DHT22;35570;48.218;16.326;2023-11-21T17:05:29;9.60;99.90
49679;DHT22;35570;48.218;16.326;2023-11-21T17:07:57;9.60;99.90
49679;DHT22;35570;48.218;16.326;2023-11-21T17:10:23;9.60;99.90
49679;DHT22;35570;48.218;16.326;2023-11-21T17:12:49;9.60;99.90
49679;DHT22;35570;48.218;16.326;2023-11-21T17:15:16;9.60;99.90
49679;DHT22;35570;48.218;16.326;2023-11-21T17:17:43;9.60;99.90